KFSM/FSM METAR and TAF weather

Enter ICAO airport designator
Station Type Date Time Source
KFSM METAR 2018/12/19 09:53 UTC NOAA

KFSM 190953Z AUTO 00000KT 3SM BR CLR 05/04 A2995 RMK AO2 SLP143 T00500039


Station Type Date Time Source
KFSM Decoded METAR 2018/12/19 09:53 UTC NOAA

FORT SMITH REGIONAL AIRPORT, AR, United States (KFSM) 35-20N 94-22W 140M
Dec 19, 2018 - 04:53 AM EST / 2018.12.19 0953 UTC
Wind: Calm:0
Visibility: 3 mile(s):0
Sky conditions: clear
Weather: mist
Temperature: 41.0 F (5.0 C)
Dew Point: 39.0 F (3.9 C)
Relative Humidity: 92%
Pressure (altimeter): 29.95 in. Hg (1014 hPa)
ob: KFSM 190953Z AUTO 00000KT 3SM BR CLR 05/04 A2995 RMK AO2 SLP143 T00500039
cycle: 10

Station Type Date Time Source
KFSM TAF 2018/12/19 06:39 UTC NOAA

TAF KFSM 190535Z 1906/2006 07003KT 3SM BR SCT250
TEMPO 1911/1915 1/4SM FG VV002
FM191600 08006KT P6SM BKN020
FM200200 28006KT P6SM BKN020
TEMPO 2002/2006 5SM -SHRA BR


Example: see airport list